createdAt,value
2018-06-01T00:00:41.526Z,943.70
2018-06-01T00:01:49.584Z,943.67
2018-06-01T00:02:57.643Z,943.69
2018-06-01T00:04:05.800Z,943.66
2018-06-01T00:05:13.753Z,943.63
2018-06-01T00:06:21.840Z,943.64
2018-06-01T00:07:29.910Z,943.64
2018-06-01T00:08:37.989Z,943.64
2018-06-01T00:09:46.146Z,943.63
2018-06-01T00:10:54.083Z,943.57
2018-06-01T00:12:02.164Z,943.58
2018-06-01T00:13:10.248Z,943.59
2018-06-01T00:14:18.313Z,943.62
2018-06-01T00:15:26.478Z,943.63
2018-06-01T00:16:34.438Z,943.68
2018-06-01T00:17:42.510Z,943.68
2018-06-01T00:18:50.573Z,943.75
2018-06-01T00:19:58.645Z,943.78
2018-06-01T00:21:06.812Z,943.77
2018-06-01T00:22:14.792Z,943.80
2018-06-01T00:23:22.852Z,943.84
2018-06-01T00:24:30.905Z,943.86
2018-06-01T00:25:39.068Z,943.91
2018-06-01T00:26:47.144Z,943.95
2018-06-01T00:27:55.100Z,943.95
2018-06-01T00:29:03.177Z,944.02
2018-06-01T00:30:11.260Z,943.97
2018-06-01T00:31:19.318Z,944.04
2018-06-01T00:32:27.475Z,944.01
2018-06-01T00:33:35.445Z,944.03
2018-06-01T00:34:43.503Z,944.02
2018-06-01T00:35:51.580Z,944.01
2018-06-01T00:36:59.652Z,943.99
2018-06-01T00:38:07.812Z,944.00
2018-06-01T00:39:15.776Z,943.98
2018-06-01T00:40:23.814Z,943.92
2018-06-01T00:41:32.010Z,943.95
2018-06-01T00:42:39.979Z,943.87
2018-06-01T00:43:48.145Z,943.88
2018-06-01T00:44:56.119Z,943.90
2018-06-01T00:46:04.152Z,943.81
2018-06-01T00:47:12.238Z,943.80
2018-06-01T00:48:20.303Z,943.81
2018-06-01T00:49:28.464Z,943.81
2018-06-01T00:50:36.428Z,943.83
2018-06-01T00:51:44.493Z,943.78
2018-06-01T00:52:52.564Z,943.73
2018-06-01T00:54:00.632Z,943.73
2018-06-01T00:55:08.795Z,943.70
2018-06-01T00:56:16.763Z,943.71
2018-06-01T00:57:24.914Z,943.68
2018-06-01T00:58:32.891Z,943.71
2018-06-01T00:59:40.958Z,943.71
2018-06-01T01:00:49.115Z,943.72
2018-06-01T01:01:57.078Z,943.75
2018-06-01T01:03:05.145Z,943.74
2018-06-01T01:04:13.223Z,943.77
2018-06-01T01:05:21.280Z,943.78
2018-06-01T01:06:29.457Z,943.80
2018-06-01T01:07:37.427Z,943.80
2018-06-01T01:08:45.493Z,943.78
2018-06-01T01:09:53.560Z,943.77
2018-06-01T01:11:01.637Z,943.81
2018-06-01T01:12:09.921Z,943.79
2018-06-01T01:13:17.853Z,943.80
2018-06-01T01:14:25.836Z,943.75
2018-06-01T01:15:33.877Z,943.79
2018-06-01T01:16:41.952Z,943.78
2018-06-01T01:17:50.105Z,943.77
2018-06-01T01:18:58.093Z,943.79
2018-06-01T01:20:06.163Z,943.76
2018-06-01T01:21:14.188Z,943.78
2018-06-01T01:22:22.281Z,943.83
2018-06-01T01:23:30.452Z,943.86
2018-06-01T01:24:38.419Z,943.87
2018-06-01T01:25:46.496Z,943.86
2018-06-01T01:26:54.531Z,943.86
2018-06-01T01:28:02.615Z,943.85
2018-06-01T01:29:10.783Z,943.85
2018-06-01T01:30:18.768Z,943.84
2018-06-01T01:31:26.822Z,943.83
2018-06-01T01:32:34.876Z,943.78
2018-06-01T01:33:42.927Z,943.79
2018-06-01T01:34:51.103Z,943.79
2018-06-01T01:35:59.069Z,943.82
2018-06-01T01:37:07.148Z,943.84
2018-06-01T01:38:15.206Z,943.81
2018-06-01T01:39:23.275Z,943.83
2018-06-01T01:40:31.427Z,943.78
2018-06-01T01:41:39.400Z,943.79
2018-06-01T01:42:47.468Z,943.81
2018-06-01T01:43:55.530Z,943.74
2018-06-01T01:45:03.804Z,943.75
2018-06-01T01:46:11.767Z,943.74
2018-06-01T01:47:19.742Z,943.71
2018-06-01T01:48:27.797Z,943.73
2018-06-01T01:49:35.844Z,943.67
2018-06-01T01:50:43.904Z,943.70
2018-06-01T01:51:52.092Z,943.67
2018-06-01T01:53:00.079Z,943.68
2018-06-01T01:54:08.132Z,943.65
2018-06-01T01:55:16.195Z,943.69
2018-06-01T01:56:24.244Z,943.72
2018-06-01T01:57:32.424Z,943.66
2018-06-01T01:58:40.389Z,943.66
2018-06-01T01:59:48.453Z,943.67
2018-06-01T02:00:56.612Z,943.67
2018-06-01T02:02:04.585Z,943.70
2018-06-01T02:03:12.753Z,943.74
2018-06-01T02:04:20.721Z,943.66
2018-06-01T02:05:28.783Z,943.67
2018-06-01T02:06:36.843Z,943.66
2018-06-01T02:07:44.915Z,943.63
2018-06-01T02:08:53.072Z,943.61
2018-06-01T02:10:01.056Z,943.59
2018-06-01T02:11:09.125Z,943.60
2018-06-01T02:12:17.175Z,943.56
2018-06-01T02:13:25.252Z,943.56
2018-06-01T02:14:33.414Z,943.54
2018-06-01T02:15:41.377Z,943.51
2018-06-01T02:16:49.545Z,943.53
2018-06-01T02:17:57.505Z,943.57
2018-06-01T02:19:05.581Z,943.59
2018-06-01T02:20:13.740Z,943.59
2018-06-01T02:21:21.718Z,943.60
2018-06-01T02:22:29.774Z,943.64
2018-06-01T02:23:37.845Z,943.66
2018-06-01T02:24:45.897Z,943.71
2018-06-01T02:25:54.034Z,943.78
2018-06-01T02:27:02.031Z,943.76
2018-06-01T02:28:10.090Z,943.71
2018-06-01T02:29:18.165Z,943.75
2018-06-01T02:30:26.228Z,943.74
2018-06-01T02:31:34.379Z,943.75
2018-06-01T02:32:42.450Z,943.70
2018-06-01T02:33:50.428Z,943.71
2018-06-01T02:34:58.484Z,943.70
2018-06-01T02:36:06.596Z,943.66
2018-06-01T02:37:14.722Z,943.65
2018-06-01T02:38:22.678Z,943.62
2018-06-01T02:39:30.754Z,943.60
2018-06-01T02:40:38.810Z,943.56
2018-06-01T02:41:46.883Z,943.56
2018-06-01T02:42:55.053Z,943.55
2018-06-01T02:44:03.013Z,943.55
2018-06-01T02:45:11.083Z,943.58
2018-06-01T02:46:19.150Z,943.58
2018-06-01T02:47:27.225Z,943.61
2018-06-01T02:48:35.512Z,943.62
2018-06-01T02:49:43.348Z,943.59
2018-06-01T02:50:51.418Z,943.60
2018-06-01T02:51:59.478Z,943.64
2018-06-01T02:53:07.533Z,943.61
2018-06-01T02:54:15.694Z,943.61
2018-06-01T02:55:23.665Z,943.61
2018-06-01T02:56:31.740Z,943.58
2018-06-01T02:57:39.804Z,943.61
2018-06-01T02:58:47.865Z,943.62
2018-06-01T02:59:56.032Z,943.57
2018-06-01T03:01:03.986Z,943.54
2018-06-01T03:02:12.071Z,943.57
2018-06-01T03:03:20.137Z,943.62
2018-06-01T03:04:28.286Z,943.63
2018-06-01T03:05:36.363Z,943.63
2018-06-01T03:06:44.307Z,943.69
2018-06-01T03:07:52.401Z,943.70
2018-06-01T03:09:00.463Z,943.72
2018-06-01T03:10:08.524Z,943.73
2018-06-01T03:11:16.668Z,943.72
2018-06-01T03:12:24.636Z,943.77
2018-06-01T03:13:32.735Z,943.80
2018-06-01T03:14:40.792Z,943.80
2018-06-01T03:15:48.858Z,943.82
2018-06-01T03:16:57.023Z,943.82
2018-06-01T03:18:04.994Z,943.84
2018-06-01T03:19:13.057Z,943.86
2018-06-01T03:20:21.209Z,943.90
2018-06-01T03:21:29.163Z,943.91
2018-06-01T03:22:37.356Z,943.95
2018-06-01T03:23:45.317Z,943.94
2018-06-01T03:24:53.382Z,943.97
2018-06-01T03:26:01.450Z,944.00
2018-06-01T03:27:09.527Z,944.02
2018-06-01T03:28:17.683Z,944.03
2018-06-01T03:29:25.653Z,944.06
2018-06-01T03:30:33.692Z,944.05
2018-06-01T03:31:41.781Z,944.05
2018-06-01T03:32:49.853Z,944.10
2018-06-01T03:33:58.008Z,944.15
2018-06-01T03:35:05.988Z,944.15
2018-06-01T03:36:14.114Z,944.12
2018-06-01T03:37:22.100Z,944.18
2018-06-01T03:38:30.173Z,944.16
2018-06-01T03:39:38.334Z,944.18
2018-06-01T03:40:46.293Z,944.18
2018-06-01T03:41:54.349Z,944.18
2018-06-01T03:43:02.444Z,944.17
2018-06-01T03:44:10.515Z,944.15
2018-06-01T03:45:18.658Z,944.18
2018-06-01T03:46:26.627Z,944.22
2018-06-01T03:47:34.697Z,944.21
2018-06-01T03:48:42.758Z,944.21
2018-06-01T03:49:50.837Z,944.23
2018-06-01T03:50:58.998Z,944.22
2018-06-01T03:52:07.057Z,944.22
2018-06-01T03:53:15.036Z,944.21
2018-06-01T03:54:23.098Z,944.22
2018-06-01T03:55:31.164Z,944.22
2018-06-01T03:56:39.314Z,944.21
2018-06-01T03:57:47.291Z,944.24
2018-06-01T03:58:55.357Z,944.19
2018-06-01T04:00:03.487Z,944.22
2018-06-01T04:01:11.483Z,944.17
2018-06-01T04:02:19.641Z,944.17
2018-06-01T04:03:27.632Z,944.18
2018-06-01T04:04:35.687Z,944.19
2018-06-01T04:05:43.738Z,944.18
2018-06-01T04:06:51.832Z,944.18
2018-06-01T04:07:59.976Z,944.15
2018-06-01T04:09:07.945Z,944.15
2018-06-01T04:10:16.022Z,944.17
2018-06-01T04:11:24.075Z,944.15
2018-06-01T04:12:32.153Z,944.16
2018-06-01T04:13:40.303Z,944.18
2018-06-01T04:14:48.276Z,944.17
2018-06-01T04:15:56.352Z,944.14
2018-06-01T04:17:04.435Z,944.17
2018-06-01T04:18:12.492Z,944.18
2018-06-01T04:19:20.641Z,944.16
2018-06-01T04:20:28.621Z,944.19
2018-06-01T04:21:36.672Z,944.21
2018-06-01T04:22:44.748Z,944.17
2018-06-01T04:23:52.910Z,944.18
2018-06-01T04:25:00.981Z,944.20
2018-06-01T04:26:08.935Z,944.19
2018-06-01T04:27:17.650Z,944.14
2018-06-01T04:28:25.067Z,944.20
2018-06-01T04:29:33.120Z,944.15
2018-06-01T04:30:41.300Z,944.19
2018-06-01T04:31:49.271Z,944.21
2018-06-01T04:32:57.328Z,944.19
2018-06-01T04:34:05.398Z,944.20
2018-06-01T04:35:13.462Z,944.25
2018-06-01T04:36:21.629Z,944.27
2018-06-01T04:37:29.606Z,944.22
2018-06-01T04:38:37.675Z,944.25
2018-06-01T04:39:45.867Z,944.23
2018-06-01T04:40:53.765Z,944.23
2018-06-01T04:42:01.949Z,944.24
2018-06-01T04:43:09.937Z,944.23
2018-06-01T04:44:17.974Z,944.22
2018-06-01T04:45:26.068Z,944.23
2018-06-01T04:46:34.259Z,944.21
2018-06-01T04:47:42.286Z,944.21
2018-06-01T04:48:50.782Z,944.20
2018-06-01T04:49:58.345Z,944.24
2018-06-01T04:51:06.385Z,944.26
2018-06-01T04:52:14.443Z,944.30
2018-06-01T04:53:22.617Z,944.26
2018-06-01T04:54:30.570Z,944.27
2018-06-01T04:55:39.239Z,944.26
2018-06-01T04:56:46.718Z,944.31
2018-06-01T04:57:55.835Z,944.28
2018-06-01T04:59:02.950Z,944.30
2018-06-01T05:00:10.924Z,944.33
2018-06-01T05:01:19.002Z,944.35
2018-06-01T05:02:27.051Z,944.36
2018-06-01T05:03:35.171Z,944.37
2018-06-01T05:04:43.290Z,944.37
2018-06-01T05:05:51.259Z,944.35
2018-06-01T05:06:59.328Z,944.41
2018-06-01T05:08:07.390Z,944.35
2018-06-01T05:09:15.459Z,944.38
2018-06-01T05:10:23.605Z,944.32
2018-06-01T05:11:31.683Z,944.37
2018-06-01T05:12:39.652Z,944.35
2018-06-01T05:13:47.724Z,944.40
2018-06-01T05:14:55.773Z,944.44
2018-06-01T05:16:04.315Z,944.42
2018-06-01T05:17:11.933Z,944.37
2018-06-01T05:18:19.989Z,944.40
2018-06-01T05:19:28.061Z,944.43
2018-06-01T05:20:36.126Z,944.44
2018-06-01T05:21:44.890Z,944.49
2018-06-01T05:22:52.270Z,944.53
2018-06-01T05:24:00.329Z,944.54
2018-06-01T05:25:08.383Z,944.47
2018-06-01T05:26:16.467Z,944.52
2018-06-01T05:27:24.618Z,944.54
2018-06-01T05:28:32.597Z,944.59
2018-06-01T05:29:40.677Z,944.59
2018-06-01T05:30:48.735Z,944.69
2018-06-01T05:31:56.797Z,944.58
2018-06-01T05:33:05.348Z,944.74
2018-06-01T05:34:12.929Z,944.68
2018-06-01T05:35:21.017Z,944.61
2018-06-01T05:36:29.089Z,944.69
2018-06-01T05:37:37.129Z,944.70
2018-06-01T05:38:45.341Z,944.78
2018-06-01T05:39:53.267Z,944.74
2018-06-01T05:41:01.344Z,944.73
2018-06-01T05:42:09.413Z,944.67
2018-06-01T05:43:18.230Z,944.65
2018-06-01T05:44:25.771Z,944.69
2018-06-01T05:45:33.795Z,944.92
2018-06-01T05:46:41.876Z,944.71
2018-06-01T05:47:50.246Z,944.84
2018-06-01T05:48:57.861Z,944.81
2018-06-01T05:50:06.115Z,944.80
2018-06-01T05:51:16.531Z,944.89
2018-06-01T05:52:22.031Z,944.73
2018-06-01T05:53:30.507Z,944.84
2018-06-01T05:54:38.780Z,945.08
2018-06-01T05:55:46.343Z,945.02
2018-06-01T05:56:54.426Z,944.88
2018-06-01T05:58:02.552Z,944.98
2018-06-01T05:59:11.029Z,944.89
2018-06-01T06:00:18.788Z,944.83
2018-06-01T06:01:28.429Z,944.88
2018-06-01T06:02:34.653Z,944.94
2018-06-01T06:03:43.313Z,944.84
2018-06-01T06:04:50.775Z,944.93
2018-06-01T06:05:58.844Z,944.85
2018-06-01T06:07:08.820Z,944.94
2018-06-01T06:08:15.902Z,944.92
2018-06-01T06:09:23.063Z,944.82
2018-06-01T06:10:31.120Z,945.01
2018-06-01T06:11:39.199Z,945.09
2018-06-01T06:12:47.594Z,944.98
2018-06-01T06:13:55.333Z,944.81
2018-06-01T06:15:03.483Z,944.98
2018-06-01T06:16:11.740Z,945.00
2018-06-01T06:17:19.987Z,944.92
2018-06-01T06:18:28.395Z,945.15
2018-06-01T06:19:35.884Z,944.90
2018-06-01T06:20:43.719Z,944.98
2018-06-01T06:21:51.820Z,945.18
2018-06-01T06:23:00.533Z,945.02
2018-06-01T06:24:08.871Z,944.98
2018-06-01T06:25:16.590Z,945.05
2018-06-01T06:26:24.064Z,944.94
2018-06-01T06:27:32.167Z,945.14
2018-06-01T06:28:40.798Z,944.99
2018-06-01T06:29:48.397Z,945.14
2018-06-01T06:30:56.468Z,945.04
2018-06-01T06:32:04.478Z,945.01
2018-06-01T06:33:12.896Z,945.03
2018-06-01T06:34:20.569Z,945.11
2018-06-01T06:35:28.746Z,945.29
2018-06-01T06:36:36.723Z,945.01
2018-06-01T06:37:44.818Z,945.07
2018-06-01T06:38:52.875Z,945.24
2018-06-01T06:40:01.447Z,945.09
2018-06-01T06:41:10.142Z,945.15
2018-06-01T06:42:17.591Z,945.03
2018-06-01T06:43:25.158Z,945.10
2018-06-01T06:44:33.853Z,945.32
2018-06-01T06:45:41.874Z,945.38
2018-06-01T06:46:49.836Z,945.29
2018-06-01T06:47:58.038Z,945.20
2018-06-01T06:49:05.773Z,945.22
2018-06-01T06:50:14.186Z,945.19
2018-06-01T06:51:21.634Z,945.09
2018-06-01T06:52:29.807Z,945.07
2018-06-01T06:53:37.773Z,945.15
2018-06-01T06:54:45.847Z,945.14
2018-06-01T06:55:53.885Z,945.32
2018-06-01T06:57:01.978Z,945.25
2018-06-01T06:58:10.153Z,945.24
2018-06-01T06:59:18.123Z,945.42
2018-06-01T07:00:26.775Z,945.39
2018-06-01T07:01:34.247Z,945.42
2018-06-01T07:02:42.500Z,945.41
2018-06-01T07:03:50.508Z,945.28
2018-06-01T07:04:58.479Z,945.49
2018-06-01T07:06:06.553Z,945.35
2018-06-01T07:07:14.602Z,945.53
2018-06-01T07:08:22.672Z,945.43
2018-06-01T07:09:30.843Z,945.56
2018-06-01T07:10:38.934Z,945.64
2018-06-01T07:11:46.910Z,945.67
2018-06-01T07:12:55.031Z,945.63
2018-06-01T07:14:03.041Z,945.48
2018-06-01T07:15:11.877Z,945.87
2018-06-01T07:16:19.752Z,945.92
2018-06-01T07:17:27.283Z,945.94
2018-06-01T07:18:37.065Z,945.75
2018-06-01T07:19:43.407Z,945.67
2018-06-01T07:20:52.334Z,946.01
2018-06-01T07:21:59.951Z,945.82
2018-06-01T07:23:07.932Z,945.65
2018-06-01T07:24:16.161Z,945.61
2018-06-01T07:25:25.172Z,945.79
2018-06-01T07:26:35.197Z,945.76
2018-06-01T07:27:40.440Z,945.66
2018-06-01T07:28:47.960Z,945.45
2018-06-01T07:29:56.677Z,945.63
2018-06-01T07:31:04.530Z,945.39
2018-06-01T07:32:12.407Z,945.32
2018-06-01T07:33:20.657Z,945.59
2018-06-01T07:34:28.484Z,945.61
2018-06-01T07:35:36.399Z,947.36
2018-06-01T07:36:44.446Z,945.38
2018-06-01T07:37:52.636Z,945.62
2018-06-01T07:39:00.613Z,947.37
2018-06-01T07:40:08.693Z,947.06
2018-06-01T07:41:16.763Z,947.38
2018-06-01T07:42:25.377Z,947.62
2018-06-01T07:43:33.581Z,947.67
2018-06-01T07:44:40.988Z,946.49
2018-06-01T07:45:49.057Z,947.82
2018-06-01T07:46:58.161Z,945.88
2018-06-01T07:48:05.211Z,947.24
2018-06-01T07:49:13.378Z,948.21
2018-06-01T07:50:21.462Z,946.02
2018-06-01T07:51:29.450Z,946.01
2018-06-01T07:52:37.722Z,946.46
2018-06-01T07:53:45.595Z,945.60
2018-06-01T07:54:53.834Z,945.70
2018-06-01T07:56:01.761Z,949.35
2018-06-01T07:57:10.089Z,947.03
2018-06-01T07:58:18.484Z,948.92
2018-06-01T07:59:26.495Z,948.12
2018-06-01T08:00:34.136Z,946.35
2018-06-01T08:01:42.130Z,945.65
2018-06-01T08:02:50.761Z,946.12
2018-06-01T08:03:58.663Z,946.49
2018-06-01T08:05:06.364Z,945.86
2018-06-01T08:06:16.456Z,945.50
2018-06-01T08:07:22.522Z,945.66
2018-06-01T08:08:31.239Z,946.08
2018-06-01T08:09:38.671Z,945.81
2018-06-01T08:10:46.753Z,945.73
2018-06-01T08:11:55.792Z,945.85
2018-06-01T08:13:02.904Z,948.90
2018-06-01T08:14:10.972Z,950.19
2018-06-01T08:15:19.647Z,951.12
2018-06-01T08:16:27.127Z,952.35
2018-06-01T08:17:35.294Z,952.40
2018-06-01T08:18:43.281Z,946.01
2018-06-01T08:19:51.342Z,951.44
2018-06-01T08:20:59.890Z,946.24
2018-06-01T08:22:07.613Z,946.60
2018-06-01T08:23:17.376Z,952.44
2018-06-01T08:24:23.660Z,949.82
2018-06-01T08:25:31.743Z,947.64
2018-06-01T08:26:39.814Z,947.13
2018-06-01T08:27:47.897Z,949.09
2018-06-01T08:28:56.098Z,952.78
2018-06-01T08:30:04.028Z,953.17
2018-06-01T08:31:12.735Z,952.96
2018-06-01T08:32:20.425Z,951.67
2018-06-01T08:33:28.303Z,952.73
2018-06-01T08:34:37.235Z,946.80
2018-06-01T08:35:44.442Z,952.67
2018-06-01T08:36:52.544Z,952.97
2018-06-01T08:38:00.709Z,953.11
2018-06-01T08:39:08.692Z,952.60
2018-06-01T08:40:16.857Z,952.54
2018-06-01T08:41:26.516Z,951.74
2018-06-01T08:42:32.942Z,951.46
2018-06-01T08:43:41.056Z,951.78
2018-06-01T08:44:49.623Z,947.77
2018-06-01T08:46:00.443Z,947.76
2018-06-01T08:47:05.897Z,945.99
2018-06-01T08:48:13.327Z,950.53
2018-06-01T08:49:21.893Z,950.86
2018-06-01T08:50:29.511Z,950.65
2018-06-01T08:51:38.272Z,950.62
2018-06-01T08:52:45.927Z,946.64
2018-06-01T08:53:55.923Z,948.59
2018-06-01T08:55:03.427Z,950.24
2018-06-01T08:56:11.530Z,949.77
2018-06-01T08:57:18.177Z,949.65
2018-06-01T08:58:26.653Z,949.35
2018-06-01T08:59:34.180Z,946.56
2018-06-01T09:00:42.475Z,946.15
2018-06-01T09:01:51.979Z,945.96
2018-06-01T09:02:59.522Z,945.78
2018-06-01T09:04:06.861Z,945.67
2018-06-01T09:05:14.776Z,945.64
2018-06-01T09:06:22.814Z,946.11
2018-06-01T09:07:30.811Z,948.49
2018-06-01T09:08:38.899Z,946.94
2018-06-01T09:09:47.623Z,948.23
2018-06-01T09:10:55.260Z,946.40
2018-06-01T09:12:03.070Z,945.90
2018-06-01T09:13:11.129Z,945.91
2018-06-01T09:14:19.310Z,945.97
2018-06-01T09:15:27.480Z,946.12
2018-06-01T09:16:35.367Z,946.34
2018-06-01T09:17:43.613Z,947.92
2018-06-01T09:18:51.541Z,947.87
2018-06-01T09:20:01.605Z,946.12
2018-06-01T09:21:07.896Z,947.11
2018-06-01T09:22:15.978Z,946.10
2018-06-01T09:23:24.342Z,946.15
2018-06-01T09:24:31.933Z,946.08
2018-06-01T09:25:40.236Z,946.15
2018-06-01T09:26:48.679Z,946.11
2018-06-01T09:27:56.223Z,945.88
2018-06-01T09:29:04.213Z,945.84
2018-06-01T09:30:12.312Z,945.94
2018-06-01T09:31:20.493Z,945.97
2018-06-01T09:32:28.479Z,946.12
2018-06-01T09:33:36.555Z,945.88
2018-06-01T09:34:44.632Z,946.09
2018-06-01T09:35:52.710Z,945.93
2018-06-01T09:37:01.019Z,945.86
2018-06-01T09:38:08.851Z,945.82
2018-06-01T09:39:16.935Z,945.92
2018-06-01T09:40:25.017Z,945.99
2018-06-01T09:41:33.178Z,945.95
2018-06-01T09:42:41.262Z,945.86
2018-06-01T09:43:49.250Z,945.83
2018-06-01T09:44:57.322Z,945.98
2018-06-01T09:46:05.395Z,946.15
2018-06-01T09:47:13.477Z,946.04
2018-06-01T09:48:21.654Z,945.98
2018-06-01T09:49:29.636Z,946.06
2018-06-01T09:50:37.694Z,946.04
2018-06-01T09:51:45.777Z,945.91
2018-06-01T09:52:53.840Z,945.89
2018-06-01T09:54:02.015Z,945.78
2018-06-01T09:55:10.008Z,945.77
2018-06-01T09:56:18.071Z,945.66
2018-06-01T09:57:26.252Z,945.86
2018-06-01T09:58:34.217Z,945.91
2018-06-01T09:59:42.401Z,945.85
2018-06-01T10:00:50.427Z,945.77
2018-06-01T10:01:58.457Z,945.77
2018-06-01T10:03:06.814Z,945.84
2018-06-01T10:04:14.606Z,945.69
2018-06-01T10:05:22.776Z,945.75
2018-06-01T10:06:30.754Z,945.96
2018-06-01T10:07:38.830Z,945.76
2018-06-01T10:08:48.629Z,945.74
2018-06-01T10:09:54.980Z,945.80
2018-06-01T10:11:03.780Z,945.79
2018-06-01T10:12:11.681Z,945.93
2018-06-01T10:13:19.298Z,945.81
2018-06-01T10:14:27.278Z,945.68
2018-06-01T10:15:35.511Z,945.87
2018-06-01T10:16:44.926Z,945.78
2018-06-01T10:17:51.511Z,945.65
2018-06-01T10:18:59.873Z,945.62
2018-06-01T10:20:08.128Z,945.53
2018-06-01T10:21:15.796Z,945.56
2018-06-01T10:22:24.146Z,945.67
2018-06-01T10:23:32.019Z,945.68
2018-06-01T10:24:39.940Z,945.53
2018-06-01T10:25:47.997Z,945.54
2018-06-01T10:26:56.683Z,945.52
2018-06-01T10:28:04.240Z,945.55
2018-06-01T10:29:14.514Z,945.41
2018-06-01T10:30:20.635Z,945.43
2018-06-01T10:31:28.390Z,945.42
2018-06-01T10:32:36.465Z,945.44
2018-06-01T10:33:44.635Z,945.44
2018-06-01T10:34:53.523Z,945.47
2018-06-01T10:36:00.690Z,945.48
2018-06-01T10:37:08.768Z,945.46
2018-06-01T10:38:16.852Z,945.45
2018-06-01T10:39:25.556Z,945.56
2018-06-01T10:40:32.989Z,945.62
2018-06-01T10:41:41.046Z,945.54
2018-06-01T10:42:49.130Z,945.52
2018-06-01T10:43:57.187Z,945.50
2018-06-01T10:45:05.537Z,945.47
2018-06-01T10:46:13.353Z,945.40
2018-06-01T10:47:21.414Z,945.61
2018-06-01T10:48:30.070Z,945.49
2018-06-01T10:49:37.721Z,945.43
2018-06-01T10:50:46.794Z,945.39
2018-06-01T10:51:53.838Z,945.50
2018-06-01T10:53:01.818Z,945.47
2018-06-01T10:54:10.154Z,945.47
2018-06-01T10:55:18.144Z,945.45
2018-06-01T10:56:26.103Z,945.42
2018-06-01T10:57:34.130Z,945.47
2018-06-01T10:58:42.831Z,945.42
2018-06-01T10:59:50.236Z,945.43
2018-06-01T11:01:00.370Z,945.40
2018-06-01T11:02:08.378Z,945.39
2018-06-01T11:03:15.123Z,945.40
2018-06-01T11:04:22.594Z,945.35
2018-06-01T11:05:30.609Z,945.26
2018-06-01T11:06:41.027Z,945.29
2018-06-01T11:07:48.844Z,945.20
2018-06-01T11:08:55.506Z,945.19
2018-06-01T11:10:02.903Z,945.17
2018-06-01T11:11:11.559Z,945.22
2018-06-01T11:12:19.101Z,945.27
2018-06-01T11:13:27.377Z,945.14
2018-06-01T11:14:35.196Z,945.12
2018-06-01T11:15:43.262Z,945.12
2018-06-01T11:16:53.195Z,945.12
2018-06-01T11:17:59.415Z,945.08
2018-06-01T11:19:07.588Z,945.07
2018-06-01T11:20:15.562Z,945.09
2018-06-01T11:21:23.724Z,945.04
2018-06-01T11:22:31.702Z,945.02
2018-06-01T11:23:40.339Z,945.02
2018-06-01T11:24:47.951Z,945.03
2018-06-01T11:25:56.000Z,945.03
2018-06-01T11:27:04.196Z,945.07
2018-06-01T11:28:12.072Z,945.07
2018-06-01T11:29:20.835Z,945.01
2018-06-01T11:30:30.258Z,945.01
2018-06-01T11:31:36.285Z,945.02
2018-06-01T11:32:44.610Z,945.04
2018-06-01T11:33:52.594Z,944.98
2018-06-01T11:35:00.666Z,944.97
2018-06-01T11:36:08.955Z,944.93
2018-06-01T11:37:16.650Z,944.91
2018-06-01T11:38:24.780Z,944.90
2018-06-01T11:39:32.977Z,944.93
2018-06-01T11:40:40.869Z,944.95
2018-06-01T11:41:49.174Z,944.88
2018-06-01T11:42:57.011Z,944.81
2018-06-01T11:44:05.231Z,944.83
2018-06-01T11:45:16.335Z,944.92
2018-06-01T11:46:21.241Z,944.97
2018-06-01T11:47:29.549Z,944.99
2018-06-01T11:48:37.944Z,944.96
2018-06-01T11:49:45.449Z,944.90
2018-06-01T11:50:53.528Z,944.85
2018-06-01T11:52:01.616Z,944.85
2018-06-01T11:53:09.812Z,944.88
2018-06-01T11:54:18.293Z,944.83
2018-06-01T11:55:26.402Z,944.85
2018-06-01T11:56:33.875Z,944.78
2018-06-01T11:57:42.037Z,944.74
2018-06-01T11:58:51.033Z,944.70
2018-06-01T11:59:58.825Z,944.70
2018-06-01T12:01:06.759Z,944.64
2018-06-01T12:02:14.785Z,944.65
2018-06-01T12:03:22.817Z,944.64
2018-06-01T12:04:30.623Z,944.61
2018-06-01T12:05:38.483Z,944.61
2018-06-01T12:06:46.560Z,944.68
2018-06-01T12:07:54.610Z,944.64
2018-06-01T12:09:02.702Z,944.64
2018-06-01T12:10:10.890Z,944.59
2018-06-01T12:11:18.883Z,944.57
2018-06-01T12:12:26.912Z,944.64
2018-06-01T12:13:34.975Z,944.65
2018-06-01T12:14:43.067Z,944.65
2018-06-01T12:15:52.626Z,944.71
2018-06-01T12:16:59.220Z,944.64
2018-06-01T12:18:07.294Z,944.62
2018-06-01T12:19:15.359Z,944.62
2018-06-01T12:20:23.531Z,944.65
2018-06-01T12:21:31.614Z,944.61
2018-06-01T12:22:39.578Z,944.68
2018-06-01T12:23:47.649Z,944.66
2018-06-01T12:24:55.719Z,944.66
2018-06-01T12:26:03.771Z,944.70
2018-06-01T12:27:11.965Z,944.60
2018-06-01T12:28:20.167Z,944.61
2018-06-01T12:29:28.166Z,944.61
2018-06-01T12:30:36.435Z,944.59
2018-06-01T12:31:44.396Z,944.59
2018-06-01T12:32:52.968Z,944.55
2018-06-01T12:34:00.306Z,944.56
2018-06-01T12:35:08.618Z,944.55
2018-06-01T12:36:17.889Z,944.53
2018-06-01T12:37:24.761Z,944.58
2018-06-01T12:38:32.694Z,944.60
2018-06-01T12:39:41.161Z,944.58
2018-06-01T12:40:48.933Z,944.54
2018-06-01T12:41:57.091Z,944.54
2018-06-01T12:43:04.884Z,944.58
2018-06-01T12:44:13.414Z,944.55
2018-06-01T12:45:21.032Z,944.56
2018-06-01T12:46:29.368Z,944.53
2018-06-01T12:47:37.246Z,944.59
2018-06-01T12:48:45.260Z,944.63
2018-06-01T12:49:54.069Z,944.57
2018-06-01T12:51:01.410Z,944.52
2018-06-01T12:52:10.295Z,944.47
2018-06-01T12:53:17.959Z,944.42
2018-06-01T12:54:25.848Z,944.40
2018-06-01T12:55:34.430Z,944.33
2018-06-01T12:56:41.813Z,944.38
2018-06-01T12:57:50.088Z,944.33
2018-06-01T12:58:58.138Z,944.39
2018-06-01T13:00:05.979Z,944.44
2018-06-01T13:01:15.074Z,944.49
2018-06-01T13:02:22.413Z,944.48
2018-06-01T13:03:30.560Z,944.44
2018-06-01T13:04:38.550Z,944.46
2018-06-01T13:05:46.602Z,944.42
2018-06-01T13:06:55.190Z,944.36
2018-06-01T13:08:02.609Z,944.36
2018-06-01T13:09:10.844Z,944.39
2018-06-01T13:10:18.899Z,944.36
2018-06-01T13:11:27.058Z,944.35
2018-06-01T13:12:37.765Z,944.30
2018-06-01T13:13:43.094Z,944.31
2018-06-01T13:14:53.158Z,944.34
2018-06-01T13:15:59.064Z,944.30
2018-06-01T13:17:07.312Z,944.29
2018-06-01T13:18:15.889Z,944.32
2018-06-01T13:19:23.675Z,944.27
2018-06-01T13:20:31.554Z,944.32
2018-06-01T13:21:39.380Z,944.29
2018-06-01T13:22:47.746Z,944.26
2018-06-01T13:23:55.618Z,944.19
2018-06-01T13:25:03.587Z,944.18
2018-06-01T13:26:11.884Z,944.18
2018-06-01T13:27:19.765Z,944.15
2018-06-01T13:28:27.875Z,944.12
2018-06-01T13:29:36.625Z,944.17
2018-06-01T13:30:44.190Z,944.19
2018-06-01T13:31:52.219Z,944.12
2018-06-01T13:33:00.435Z,944.16
2018-06-01T13:34:08.521Z,944.20
2018-06-01T13:35:17.095Z,944.20
2018-06-01T13:36:24.318Z,944.15
2018-06-01T13:37:32.657Z,944.14
2018-06-01T13:38:40.495Z,944.18
2018-06-01T13:39:49.374Z,944.11
2018-06-01T13:40:57.352Z,944.13
2018-06-01T13:42:04.979Z,944.16
2018-06-01T13:43:13.015Z,944.21
2018-06-01T13:44:21.094Z,944.23
2018-06-01T13:45:29.252Z,944.24
2018-06-01T13:46:37.375Z,944.28
2018-06-01T13:47:45.378Z,944.30
2018-06-01T13:48:53.155Z,944.29
2018-06-01T13:50:01.425Z,944.24
2018-06-01T13:51:09.584Z,944.29
2018-06-01T13:52:17.465Z,944.25
2018-06-01T13:53:25.533Z,944.16
2018-06-01T13:54:33.748Z,944.18
2018-06-01T13:55:42.376Z,944.17
2018-06-01T13:56:49.983Z,944.21
2018-06-01T13:57:58.050Z,944.19
2018-06-01T13:59:05.813Z,944.21
2018-06-01T14:00:13.864Z,944.26
2018-06-01T14:01:21.981Z,944.15
2018-06-01T14:02:30.039Z,944.14
2018-06-01T14:03:38.206Z,944.17
2018-06-01T14:04:46.181Z,944.17
2018-06-01T14:05:54.383Z,944.14
2018-06-01T14:07:02.894Z,944.10
2018-06-01T14:08:10.958Z,944.13
2018-06-01T14:09:20.599Z,944.12